Time;durP1;ratioP1;P1;durP2;ratioP2;P2;SDS_P1;SDS_P2;PMS_P1;PMS_P2;Temp;Humidity;BMP_temperature;BMP_pressure;BME280_temperature;BME280_humidity;BME280_pressure;Samples;Min_cycle;Max_cycle;Signal;HPM_P1;HPM_P2
2022/03/07 00:01:25;;;;;;;5.00;2.90;;;16.80;45.50;;;;;;4915986;28;95340;-67
2022/03/07 00:03:53;;;;;;;5.07;2.70;;;16.80;45.40;;;;;;4914445;28;96385;-67
2022/03/07 00:06:19;;;;;;;5.88;2.70;;;16.80;45.50;;;;;;4914712;28;92542;-69
2022/03/07 00:08:44;;;;;;;6.20;2.75;;;16.80;45.40;;;;;;4913365;28;92904;-68
2022/03/07 00:11:10;;;;;;;5.05;2.60;;;16.70;45.30;;;;;;4913823;28;96846;-67
2022/03/07 00:13:35;;;;;;;5.88;2.80;;;16.80;45.40;;;;;;4912917;28;93323;-68
2022/03/07 00:16:02;;;;;;;4.65;2.88;;;16.70;45.30;;;;;;4912663;28;92529;-67
2022/03/07 00:18:28;;;;;;;5.35;2.88;;;16.70;45.30;;;;;;4913572;28;92368;-67
2022/03/07 00:20:55;;;;;;;5.53;2.92;;;16.70;45.30;;;;;;4912801;28;93068;-67
2022/03/07 00:23:20;;;;;;;4.80;2.70;;;16.70;45.30;;;;;;4912580;28;93723;-67
2022/03/07 00:25:46;;;;;;;4.35;2.72;;;16.70;45.20;;;;;;4912051;28;95542;-67
2022/03/07 00:28:14;;;;;;;4.25;2.70;;;16.70;45.30;;;;;;4913140;28;92606;-68
2022/03/07 00:30:40;;;;;;;6.55;2.70;;;16.70;45.20;;;;;;4913279;28;93038;-67
2022/03/07 00:33:05;;;;;;;3.78;2.30;;;16.60;45.10;;;;;;4912358;28;93115;-67
2022/03/07 00:35:31;;;;;;;4.65;2.70;;;16.60;45.10;;;;;;4912475;28;92981;-67
2022/03/07 00:37:57;;;;;;;4.70;2.70;;;16.60;45.20;;;;;;4913002;28;92463;-68
2022/03/07 00:40:22;;;;;;;3.72;2.47;;;16.60;45.10;;;;;;4912738;28;100684;-67
2022/03/07 00:42:48;;;;;;;3.13;2.40;;;16.60;45.10;;;;;;4912486;28;94216;-67
2022/03/07 00:45:14;;;;;;;4.30;2.45;;;16.60;45.10;;;;;;4912689;28;92558;-67
2022/03/07 00:47:40;;;;;;;5.05;2.53;;;16.60;45.10;;;;;;4912306;28;92935;-67
2022/03/07 00:50:06;;;;;;;5.10;3.22;;;16.60;45.10;;;;;;4911138;28;96160;-67
2022/03/07 00:52:32;;;;;;;3.88;2.60;;;16.60;45.00;;;;;;4912454;28;94552;-67
2022/03/07 00:54:59;;;;;;;3.63;2.40;;;16.60;45.00;;;;;;4912115;28;92520;-67
2022/03/07 00:57:24;;;;;;;5.35;2.90;;;16.60;45.00;;;;;;4911936;28;94280;-67
2022/03/07 00:59:50;;;;;;;3.53;2.20;;;16.50;45.00;;;;;;4912996;28;92668;-68
2022/03/07 01:02:16;;;;;;;3.45;2.33;;;16.60;45.00;;;;;;4912157;28;102158;-67
2022/03/07 01:04:41;;;;;;;3.85;2.53;;;16.50;45.00;;;;;;4912816;28;92509;-67
2022/03/07 01:07:08;;;;;;;4.95;2.72;;;16.50;45.00;;;;;;4914226;28;92673;-67
2022/03/07 01:09:34;;;;;;;3.47;2.40;;;16.50;44.90;;;;;;4912594;28;94854;-67
2022/03/07 01:12:00;;;;;;;4.55;2.50;;;16.50;44.90;;;;;;4912966;28;92665;-67
2022/03/07 01:14:25;;;;;;;4.75;2.60;;;16.50;44.90;;;;;;4911059;28;95122;-68
2022/03/07 01:16:51;;;;;;;2.72;2.20;;;16.50;44.90;;;;;;4915479;28;93147;-67
2022/03/07 01:19:17;;;;;;;3.15;2.28;;;16.50;44.90;;;;;;4915078;28;99291;-67
2022/03/07 01:21:44;;;;;;;3.95;2.20;;;16.40;44.70;;;;;;4912656;28;93098;-67
2022/03/07 01:24:10;;;;;;;3.88;2.63;;;16.40;44.90;;;;;;4913150;28;92602;-67
2022/03/07 01:26:37;;;;;;;4.32;2.58;;;16.40;44.80;;;;;;4912467;28;92535;-67
2022/03/07 01:29:03;;;;;;;2.97;2.15;;;16.50;44.80;;;;;;4911096;28;93840;-68
2022/03/07 01:31:29;;;;;;;3.70;2.38;;;16.40;44.70;;;;;;4912721;28;93338;-67
2022/03/07 01:33:55;;;;;;;3.08;2.10;;;16.40;44.70;;;;;;4912308;28;92444;-68
2022/03/07 01:36:20;;;;;;;4.43;2.47;;;16.40;44.70;;;;;;4912283;28;92499;-67
2022/03/07 01:38:46;;;;;;;3.25;2.13;;;16.40;44.70;;;;;;4910780;28;96690;-67
2022/03/07 01:41:13;;;;;;;3.47;1.75;;;16.40;44.70;;;;;;4911519;28;105261;-67
2022/03/07 01:43:38;;;;;;;4.45;2.50;;;16.40;44.60;;;;;;4912315;28;92991;-67
2022/03/07 01:46:04;;;;;;;3.88;2.25;;;16.40;44.70;;;;;;4912091;28;93017;-69
2022/03/07 01:48:29;;;;;;;3.03;2.17;;;16.40;44.70;;;;;;4912162;28;94071;-67
2022/03/07 01:50:55;;;;;;;4.05;2.15;;;16.40;44.70;;;;;;4909733;28;93011;-68
2022/03/07 01:53:21;;;;;;;2.95;2.10;;;16.30;44.60;;;;;;4911940;28;92571;-67
2022/03/07 01:55:47;;;;;;;5.68;2.58;;;16.40;44.60;;;;;;4912003;28;92351;-67
2022/03/07 01:58:13;;;;;;;3.15;2.15;;;16.30;44.60;;;;;;4911971;28;93044;-68
2022/03/07 02:00:39;;;;;;;3.00;2.20;;;16.30;44.60;;;;;;4911155;28;92615;-67
2022/03/07 02:03:05;;;;;;;3.95;2.33;;;16.30;44.50;;;;;;4910020;28;95383;-67
2022/03/07 02:05:32;;;;;;;3.60;2.05;;;16.30;44.50;;;;;;4911220;28;92960;-67
2022/03/07 02:07:57;;;;;;;3.90;2.22;;;16.30;44.50;;;;;;4911446;28;95772;-67
2022/03/07 02:10:28;;;;;;;2.55;2.00;;;16.30;44.50;;;;;;4911726;28;93123;-67
2022/03/07 02:12:54;;;;;;;3.33;2.17;;;16.30;44.50;;;;;;4911295;28;92486;-69
2022/03/07 02:15:19;;;;;;;3.15;2.00;;;16.30;44.50;;;;;;4911847;28;92481;-67
2022/03/07 02:17:46;;;;;;;3.08;1.77;;;16.30;44.50;;;;;;4902094;28;93123;-67
2022/03/07 02:20:13;;;;;;;3.00;2.03;;;16.20;44.40;;;;;;4911471;28;93869;-68
2022/03/07 02:22:40;;;;;;;3.25;1.98;;;16.20;44.40;;;;;;4911753;28;92586;-67
2022/03/07 02:25:06;;;;;;;3.83;2.40;;;16.30;44.40;;;;;;4911643;28;92959;-67
2022/03/07 02:27:33;;;;;;;2.78;1.90;;;16.20;44.30;;;;;;4910755;28;95467;-67
2022/03/07 02:30:05;;;;;;;3.42;2.17;;;16.20;44.30;;;;;;4912279;28;95192;-67
2022/03/07 02:32:31;;;;;;;2.22;1.80;;;16.20;44.30;;;;;;4912462;28;92578;-68
2022/03/07 02:34:57;;;;;;;2.95;2.08;;;16.20;44.30;;;;;;4912188;28;92858;-67
2022/03/07 02:37:23;;;;;;;4.15;2.30;;;16.20;44.30;;;;;;4912844;28;93105;-67
2022/03/07 02:39:49;;;;;;;3.00;1.90;;;16.20;44.40;;;;;;4911144;28;94244;-67
2022/03/07 02:42:14;;;;;;;2.28;1.80;;;16.20;44.30;;;;;;4911421;28;92589;-68
2022/03/07 02:44:40;;;;;;;3.70;2.30;;;16.20;44.30;;;;;;4912842;28;91812;-67
2022/03/07 02:47:07;;;;;;;2.90;2.15;;;16.20;44.20;;;;;;4911369;28;93622;-67
2022/03/07 02:49:33;;;;;;;3.15;2.00;;;16.20;44.20;;;;;;4912629;28;92764;-67
2022/03/07 02:51:59;;;;;;;2.55;1.98;;;16.20;44.20;;;;;;4911619;28;95057;-67
2022/03/07 02:54:25;;;;;;;3.08;2.10;;;16.10;44.20;;;;;;4916457;28;92543;-67
2022/03/07 02:56:51;;;;;;;2.47;2.00;;;16.10;44.20;;;;;;4915281;28;93513;-68
2022/03/07 02:59:16;;;;;;;2.33;1.90;;;16.10;44.20;;;;;;4912054;28;93564;-68
2022/03/07 03:01:45;;;;;;;2.75;2.05;;;16.10;44.10;;;;;;4911703;28;92986;-68
2022/03/07 03:04:11;;;;;;;2.58;1.95;;;16.10;44.10;;;;;;4910817;28;93068;-67
2022/03/07 03:06:38;;;;;;;2.95;1.70;;;16.10;44.10;;;;;;4910874;28;93733;-68
2022/03/07 03:09:04;;;;;;;3.58;2.08;;;16.10;44.20;;;;;;4911185;28;93211;-67
2022/03/07 03:11:29;;;;;;;2.67;1.90;;;16.10;44.10;;;;;;4911045;28;92859;-67
2022/03/07 03:13:55;;;;;;;3.42;2.10;;;16.10;44.20;;;;;;4913361;28;92644;-67
2022/03/07 03:16:20;;;;;;;2.72;1.90;;;16.00;44.10;;;;;;4911982;28;95573;-67
2022/03/07 03:18:46;;;;;;;3.10;2.13;;;16.00;44.00;;;;;;4914288;28;95119;-67
2022/03/07 03:21:12;;;;;;;2.60;1.90;;;16.00;44.10;;;;;;4914725;28;93161;-67
2022/03/07 03:23:38;;;;;;;3.03;1.95;;;16.00;44.00;;;;;;4914725;28;93044;-69
2022/03/07 03:26:04;;;;;;;3.45;2.08;;;16.00;44.00;;;;;;4913846;28;93239;-68
2022/03/07 03:28:29;;;;;;;3.10;2.10;;;16.00;44.10;;;;;;4913605;28;93270;-67
2022/03/07 03:30:55;;;;;;;2.58;1.92;;;16.00;43.90;;;;;;4913959;28;92579;-67
2022/03/07 03:33:22;;;;;;;3.17;2.03;;;16.00;43.90;;;;;;4913830;28;92228;-67
2022/03/07 03:35:48;;;;;;;2.08;1.80;;;16.00;43.90;;;;;;4913618;28;94377;-67
2022/03/07 03:38:14;;;;;;;3.38;2.38;;;16.00;43.90;;;;;;4914195;28;92521;-68
2022/03/07 03:40:40;;;;;;;3.25;2.03;;;16.00;44.00;;;;;;4912846;28;94978;-68
2022/03/07 03:43:06;;;;;;;2.67;1.80;;;16.00;43.90;;;;;;4913932;28;93066;-69
2022/03/07 03:45:32;;;;;;;3.00;1.95;;;16.00;43.90;;;;;;4913265;28;93211;-69
2022/03/07 03:47:58;;;;;;;3.10;1.60;;;16.00;43.90;;;;;;4913195;28;99075;-67
2022/03/07 03:50:24;;;;;;;3.60;2.22;;;16.00;43.90;;;;;;4913858;28;92570;-69
2022/03/07 03:52:50;;;;;;;2.70;1.85;;;15.90;43.80;;;;;;4912942;28;92508;-67
2022/03/07 03:55:16;;;;;;;3.08;1.60;;;15.90;43.80;;;;;;4913251;28;93724;-68
2022/03/07 03:57:43;;;;;;;3.17;2.10;;;15.90;43.80;;;;;;4913402;28;93775;-67
2022/03/07 04:00:12;;;;;;;2.95;1.95;;;15.90;43.80;;;;;;4914187;28;92639;-66
2022/03/07 05:44:33;;;;;;;2.70;2.20;;;15.60;43.40;;;;;;3924426;22;97800;-70
2022/03/07 05:47:00;;;;;;;4.28;2.60;;;15.50;43.40;;;;;;4947787;28;93448;-67
2022/03/07 05:49:26;;;;;;;2.97;2.22;;;15.60;43.40;;;;;;4951996;28;92822;-67
2022/03/07 05:51:52;;;;;;;3.17;2.30;;;15.60;43.40;;;;;;4951572;28;93424;-67
2022/03/07 05:54:17;;;;;;;3.75;2.63;;;15.60;43.40;;;;;;4950802;28;94950;-70
2022/03/07 05:56:43;;;;;;;3.47;2.40;;;15.60;43.40;;;;;;4931889;28;96737;-67
2022/03/07 05:59:08;;;;;;;2.70;2.20;;;15.60;43.40;;;;;;4951282;28;96534;-67
2022/03/07 06:01:34;;;;;;;3.55;2.45;;;15.60;43.40;;;;;;4951506;28;93027;-68
2022/03/07 06:04:01;;;;;;;4.18;2.30;;;15.60;43.40;;;;;;4952206;28;93390;-68
2022/03/07 06:06:27;;;;;;;2.72;2.45;;;15.60;43.20;;;;;;4952637;28;93083;-67
2022/03/07 06:08:52;;;;;;;3.45;2.25;;;15.70;43.00;;;;;;4952177;28;92911;-67
2022/03/07 06:11:18;;;;;;;2.65;2.20;;;15.90;42.70;;;;;;4951994;28;92572;-68
2022/03/07 06:13:43;;;;;;;2.50;2.20;;;16.10;42.70;;;;;;4952876;28;91740;-68
2022/03/07 06:16:11;;;;;;;4.68;2.17;;;16.30;42.30;;;;;;4951051;28;101562;-68
2022/03/07 06:18:38;;;;;;;2.97;2.10;;;16.40;41.90;;;;;;4951866;28;93360;-68
2022/03/07 06:21:05;;;;;;;4.68;2.20;;;16.60;41.60;;;;;;4949533;28;95001;-67
2022/03/07 06:23:31;;;;;;;2.08;1.80;;;16.80;41.40;;;;;;4951901;28;92446;-71
2022/03/07 06:25:57;;;;;;;5.20;2.10;;;17.00;41.20;;;;;;4951300;28;93949;-69
2022/03/07 06:28:22;;;;;;;7.20;2.67;;;17.10;40.90;;;;;;4951113;28;92678;-67
2022/03/07 06:30:48;;;;;;;5.88;2.35;;;17.20;40.70;;;;;;4951042;28;93168;-67
2022/03/07 06:33:15;;;;;;;6.22;2.20;;;17.30;40.60;;;;;;4950692;28;92395;-67
2022/03/07 06:35:41;;;;;;;4.30;2.10;;;17.30;40.50;;;;;;4950874;28;92989;-68
2022/03/07 06:38:06;;;;;;;4.85;2.17;;;17.30;40.70;;;;;;4951540;28;92516;-67
2022/03/07 06:40:32;;;;;;;8.93;2.30;;;17.30;40.70;;;;;;4951683;28;93183;-68
2022/03/07 06:43:00;;;;;;;7.03;2.22;;;17.40;41.00;;;;;;4950413;28;92800;-67
2022/03/07 06:45:26;;;;;;;5.15;2.20;;;17.40;41.10;;;;;;4952635;28;97559;-69
2022/03/07 06:47:51;;;;;;;7.18;2.20;;;17.40;41.20;;;;;;4971442;28;95235;-68
2022/03/07 06:50:18;;;;;;;4.10;2.60;;;17.40;41.40;;;;;;4973902;28;93052;-68
2022/03/07 06:52:45;;;;;;;3.78;2.00;;;17.40;41.40;;;;;;4973571;28;92646;-66
2022/03/07 06:55:11;;;;;;;3.90;2.42;;;17.40;41.50;;;;;;4971396;28;92998;-66
2022/03/07 06:57:37;;;;;;;5.97;2.22;;;17.30;41.50;;;;;;4972647;28;93952;-71
2022/03/07 07:00:05;;;;;;;3.83;2.33;;;17.30;41.70;;;;;;4971493;28;92906;-67
2022/03/07 07:02:31;;;;;;;5.47;2.10;;;17.30;42.00;;;;;;4973123;28;91957;-67
2022/03/07 07:04:58;;;;;;;5.25;2.20;;;17.30;42.10;;;;;;4973051;28;93300;-68
2022/03/07 07:07:23;;;;;;;4.40;2.22;;;17.30;42.20;;;;;;4972072;28;94860;-67
2022/03/07 07:09:49;;;;;;;16.15;2.53;;;17.40;42.30;;;;;;4972242;28;95144;-68
2022/03/07 07:12:15;;;;;;;9.63;2.63;;;17.40;42.40;;;;;;4972437;28;92444;-68
2022/03/07 07:14:40;;;;;;;7.85;2.05;;;17.40;42.30;;;;;;4971840;28;94067;-68
2022/03/07 07:17:06;;;;;;;7.53;2.20;;;17.40;42.30;;;;;;4972587;28;92756;-67
2022/03/07 07:19:31;;;;;;;6.97;2.45;;;17.40;42.40;;;;;;4972978;28;93006;-67
2022/03/07 07:21:58;;;;;;;8.40;2.50;;;17.40;42.40;;;;;;4972969;28;92971;-67
2022/03/07 07:24:24;;;;;;;8.50;2.30;;;17.30;42.50;;;;;;4972141;28;93940;-67
2022/03/07 07:26:49;;;;;;;13.00;2.50;;;17.30;42.60;;;;;;4955577;28;102992;-67
2022/03/07 07:29:15;;;;;;;15.18;2.88;;;17.30;42.90;;;;;;4972981;28;92784;-67
2022/03/07 07:31:40;;;;;;;8.57;2.50;;;17.30;43.30;;;;;;4972915;28;92867;-69
2022/03/07 07:34:07;;;;;;;6.43;2.40;;;17.20;43.50;;;;;;4971733;28;95528;-68
2022/03/07 07:36:32;;;;;;;9.40;2.72;;;17.20;43.80;;;;;;4972181;28;94993;-68
2022/03/07 07:38:58;;;;;;;7.32;2.45;;;17.20;43.90;;;;;;4972701;28;95174;-69
2022/03/07 07:41:23;;;;;;;8.70;2.80;;;17.20;44.10;;;;;;4972063;28;92549;-67
2022/03/07 07:43:49;;;;;;;10.80;2.78;;;17.10;44.10;;;;;;4972051;28;93112;-68
2022/03/07 07:46:15;;;;;;;7.93;2.58;;;17.10;44.10;;;;;;4953267;28;92977;-67
2022/03/07 07:48:41;;;;;;;8.80;2.83;;;17.10;44.20;;;;;;4972238;28;92446;-68
2022/03/07 07:51:06;;;;;;;4.15;2.63;;;17.10;44.30;;;;;;4972443;28;92003;-68
2022/03/07 07:53:32;;;;;;;5.00;2.55;;;17.00;44.30;;;;;;4972503;28;93227;-69
2022/03/07 07:55:58;;;;;;;7.00;2.70;;;17.00;44.30;;;;;;4973639;28;94272;-68
2022/03/07 07:58:23;;;;;;;5.40;2.90;;;17.00;44.40;;;;;;4972863;28;95025;-67
2022/03/07 08:00:49;;;;;;;5.43;2.90;;;16.90;44.40;;;;;;4972565;28;92647;-66
2022/03/07 08:03:15;;;;;;;5.13;2.67;;;16.90;44.40;;;;;;4973924;28;93874;-67
2022/03/07 08:05:45;;;;;;;3.35;2.67;;;16.80;44.40;;;;;;4974989;28;98087;-67
2022/03/07 08:08:10;;;;;;;6.05;2.85;;;16.80;44.30;;;;;;4972802;28;93403;-67
2022/03/07 08:10:36;;;;;;;5.43;2.90;;;16.80;44.40;;;;;;4972000;28;92773;-68
2022/03/07 08:13:02;;;;;;;7.13;3.10;;;16.70;44.40;;;;;;4972694;28;93128;-67
2022/03/07 08:15:29;;;;;;;5.22;2.83;;;16.70;44.40;;;;;;4973082;28;92874;-66
2022/03/07 08:17:55;;;;;;;8.45;3.25;;;16.70;44.40;;;;;;4970739;28;92870;-67
2022/03/07 08:20:23;;;;;;;6.07;3.05;;;16.70;44.40;;;;;;4972368;28;92809;-67
2022/03/07 08:22:49;;;;;;;5.80;3.08;;;16.60;44.40;;;;;;4969960;28;97934;-67
2022/03/07 08:25:15;;;;;;;6.53;3.28;;;16.60;44.40;;;;;;4971215;28;96180;-66
2022/03/07 08:27:41;;;;;;;5.55;2.95;;;16.60;44.40;;;;;;4972045;28;92548;-67
2022/03/07 08:30:10;;;;;;;4.65;3.00;;;16.60;44.40;;;;;;4971895;28;92779;-67
2022/03/07 08:32:37;;;;;;;6.35;3.42;;;16.50;44.40;;;;;;4971544;28;94131;-66
2022/03/07 08:35:05;;;;;;;5.45;2.95;;;16.50;44.50;;;;;;4971590;28;93791;-66
2022/03/07 08:37:31;;;;;;;3.97;3.00;;;16.50;44.50;;;;;;4971913;28;92782;-66
2022/03/07 08:39:57;;;;;;;4.72;3.25;;;16.50;45.60;;;;;;4972465;28;91988;-66
2022/03/07 08:42:22;;;;;;;5.45;3.60;;;16.50;44.60;;;;;;4971305;28;93115;-66
2022/03/07 08:44:50;;;;;;;4.10;3.10;;;16.40;44.50;;;;;;4971844;28;93956;-66
2022/03/07 08:47:15;;;;;;;4.65;3.15;;;16.50;44.50;;;;;;4969605;28;96196;-67
2022/03/07 08:49:41;;;;;;;4.07;3.10;;;16.40;44.50;;;;;;4972196;28;92842;-67
2022/03/07 08:52:08;;;;;;;5.75;3.33;;;16.40;44.50;;;;;;4970709;28;96661;-70
2022/03/07 08:54:33;;;;;;;4.75;3.30;;;16.40;44.50;;;;;;4970419;28;94863;-67
2022/03/07 08:56:59;;;;;;;5.43;3.25;;;16.40;44.40;;;;;;4971557;28;92693;-68
2022/03/07 08:59:27;;;;;;;4.57;3.15;;;16.40;44.50;;;;;;4972002;28;92531;-66
2022/03/07 09:01:57;;;;;;;4.28;3.28;;;16.30;44.40;;;;;;4971079;28;93873;-67
2022/03/07 09:04:24;;;;;;;7.57;3.75;;;16.30;44.50;;;;;;4972121;28;93785;-67
2022/03/07 09:06:51;;;;;;;4.53;2.80;;;16.30;44.60;;;;;;4971050;28;93772;-67
2022/03/07 09:09:16;;;;;;;5.88;2.95;;;16.30;44.60;;;;;;4971321;28;92759;-69
2022/03/07 09:11:42;;;;;;;6.82;3.42;;;16.30;44.70;;;;;;4969063;28;96613;-69
2022/03/07 09:14:08;;;;;;;4.20;2.83;;;16.30;44.70;;;;;;4969865;28;95556;-67
2022/03/07 09:16:33;;;;;;;4.90;3.42;;;16.30;44.80;;;;;;4970491;28;92552;-67
2022/03/07 09:18:59;;;;;;;4.45;3.05;;;16.30;44.80;;;;;;4971045;28;93211;-67
2022/03/07 09:21:25;;;;;;;6.13;3.15;;;16.30;44.80;;;;;;4969322;28;93093;-66
2022/03/07 09:23:50;;;;;;;4.78;3.25;;;16.30;44.80;;;;;;4970436;28;93831;-67
2022/03/07 09:26:16;;;;;;;6.10;3.00;;;16.30;44.80;;;;;;4971243;28;93068;-67
2022/03/07 09:28:43;;;;;;;6.47;3.15;;;16.30;44.80;;;;;;4971095;28;92333;-67
2022/03/07 09:31:09;;;;;;;4.50;3.00;;;16.30;44.80;;;;;;4969954;28;94148;-67
2022/03/07 09:33:35;;;;;;;4.95;3.17;;;16.30;44.80;;;;;;4970466;28;94098;-66
2022/03/07 09:36:01;;;;;;;6.05;3.50;;;16.30;44.80;;;;;;4969435;28;95405;-67
2022/03/07 09:38:28;;;;;;;3.65;2.78;;;16.30;44.70;;;;;;4970934;28;92878;-67
2022/03/07 09:40:54;;;;;;;4.68;2.95;;;16.40;44.70;;;;;;4969646;28;94123;-68
2022/03/07 09:43:20;;;;;;;6.88;2.90;;;16.40;44.70;;;;;;4970320;28;92924;-67
2022/03/07 09:45:47;;;;;;;5.07;2.90;;;16.40;44.70;;;;;;4971939;28;92705;-67
2022/03/07 09:48:13;;;;;;;3.63;2.83;;;16.40;44.50;;;;;;4976078;28;92484;-67
2022/03/07 09:50:40;;;;;;;4.05;2.63;;;16.40;44.50;;;;;;4975995;28;92977;-67
2022/03/07 09:53:08;;;;;;;4.03;3.10;;;16.40;44.50;;;;;;4973845;28;94383;-69
2022/03/07 09:55:34;;;;;;;5.18;2.90;;;16.50;44.40;;;;;;4971050;28;92724;-67
2022/03/07 09:57:59;;;;;;;4.45;2.80;;;16.50;44.30;;;;;;4952565;28;92579;-67
2022/03/07 10:00:25;;;;;;;3.70;2.72;;;16.50;44.30;;;;;;4968087;28;96201;-66
2022/03/07 10:02:56;;;;;;;3.55;3.08;;;16.50;44.10;;;;;;4969771;28;96062;-67
2022/03/07 10:05:26;;;;;;;4.80;2.83;;;16.60;44.00;;;;;;4969297;28;92931;-67
2022/03/07 10:07:51;;;;;;;3.88;3.10;;;16.60;43.90;;;;;;4970386;28;92530;-67
2022/03/07 10:10:17;;;;;;;3.95;2.58;;;16.60;43.90;;;;;;4969754;28;93567;-67
2022/03/07 10:12:51;;;;;;;3.70;2.65;;;16.60;43.70;;;;;;4969824;28;92765;-68
2022/03/07 10:15:19;;;;;;;3.50;2.70;;;16.60;43.60;;;;;;4969521;28;92870;-68
2022/03/07 10:17:53;;;;;;;2.92;2.40;;;16.60;43.50;;;;;;4969926;28;92356;-69
2022/03/07 10:20:21;;;;;;;4.53;2.50;;;16.70;43.50;;;;;;4969156;28;93508;-67
2022/03/07 10:22:50;;;;;;;3.20;2.55;;;16.60;43.40;;;;;;4970435;28;92842;-66
2022/03/07 10:25:21;;;;;;;3.58;2.63;;;16.70;43.40;;;;;;4971503;28;94999;-69
2022/03/07 10:27:49;;;;;;;4.22;2.13;;;16.70;43.30;;;;;;4973331;28;92428;-67
2022/03/07 10:30:21;;;;;;;4.28;2.78;;;16.70;43.10;;;;;;4973240;28;94863;-67
2022/03/07 10:32:59;;;;;;;2.60;2.28;;;16.70;43.00;;;;;;4972985;28;92889;-67
2022/03/07 10:35:48;;;;;;;3.70;2.60;;;16.70;43.00;;;;;;4971802;28;92595;-67
2022/03/07 10:38:16;;;;;;;3.50;2.40;;;16.70;43.00;;;;;;4954685;28;92586;-67
2022/03/07 10:40:47;;;;;;;2.78;2.28;;;16.70;43.00;;;;;;4973605;28;92813;-67
2022/03/07 10:43:14;;;;;;;4.25;2.45;;;16.70;43.00;;;;;;4972090;28;94233;-67
2022/03/07 10:45:52;;;;;;;2.92;2.38;;;16.70;43.00;;;;;;4972586;28;93085;-68
2022/03/07 10:48:19;;;;;;;4.75;2.50;;;16.80;43.00;;;;;;4973348;28;93560;-67
2022/03/07 10:50:51;;;;;;;2.85;2.17;;;16.80;43.10;;;;;;4971895;28;96885;-68
2022/03/07 10:53:18;;;;;;;3.37;2.00;;;16.80;42.90;;;;;;4973248;28;97873;-68
2022/03/07 10:55:58;;;;;;;3.08;2.08;;;16.80;42.90;;;;;;4973001;28;92494;-68
2022/03/07 10:58:25;;;;;;;3.33;2.00;;;16.80;42.90;;;;;;4972494;28;92630;-68
2022/03/07 11:00:59;;;;;;;2.30;2.05;;;16.80;42.90;;;;;;4972348;28;96887;-67
2022/03/07 11:03:30;;;;;;;2.85;2.10;;;16.80;42.90;;;;;;4972340;28;92947;-67
2022/03/07 11:05:57;;;;;;;3.53;2.40;;;16.80;43.00;;;;;;4973642;28;92830;-67
2022/03/07 11:08:23;;;;;;;2.53;1.95;;;16.80;42.90;;;;;;4973694;28;92080;-67
2022/03/07 11:10:52;;;;;;;3.65;2.22;;;16.80;42.90;;;;;;4971947;28;94220;-67
2022/03/07 11:13:19;;;;;;;3.22;2.20;;;16.80;42.90;;;;;;4972886;28;92909;-68
2022/03/07 11:15:47;;;;;;;3.00;2.10;;;16.80;43.00;;;;;;4971383;28;94954;-67
2022/03/07 11:18:15;;;;;;;2.90;1.90;;;16.80;42.90;;;;;;4973174;28;92810;-67
2022/03/07 11:20:44;;;;;;;2.53;1.60;;;16.80;43.90;;;;;;4972166;28;94138;-67
2022/03/07 11:23:14;;;;;;;2.97;1.75;;;16.80;42.90;;;;;;4972602;28;93621;-67
2022/03/07 11:25:41;;;;;;;3.33;1.95;;;16.90;43.00;;;;;;4972325;28;92537;-67
2022/03/07 11:28:08;;;;;;;2.28;1.70;;;16.90;43.10;;;;;;4973340;28;92553;-67
2022/03/07 11:30:42;;;;;;;2.25;1.60;;;16.90;43.10;;;;;;4972372;28;94144;-67
2022/03/07 11:33:15;;;;;;;1.98;1.65;;;16.90;43.10;;;;;;4974493;28;92760;-66
2022/03/07 11:35:46;;;;;;;2.92;1.70;;;16.90;43.20;;;;;;4976894;28;92426;-67
2022/03/07 11:38:18;;;;;;;2.78;1.60;;;16.90;43.20;;;;;;4981465;28;92877;-67
2022/03/07 11:41:01;;;;;;;2.38;1.85;;;16.90;43.10;;;;;;4974452;28;95502;-67
2022/03/07 11:43:31;;;;;;;2.97;1.83;;;16.90;43.20;;;;;;4970844;28;96192;-67
2022/03/07 11:45:58;;;;;;;2.30;1.60;;;16.90;43.20;;;;;;4972098;28;92611;-68
2022/03/07 11:48:24;;;;;;;2.40;1.70;;;16.90;43.20;;;;;;4971146;28;92612;-67
2022/03/07 11:50:50;;;;;;;2.30;1.50;;;16.90;43.20;;;;;;4972681;28;93113;-67
2022/03/07 11:53:19;;;;;;;2.55;1.60;;;16.90;43.20;;;;;;4970906;28;93782;-67
2022/03/07 11:55:48;;;;;;;2.25;1.48;;;16.90;43.20;;;;;;4973008;28;92518;-67
2022/03/07 11:58:30;;;;;;;1.83;1.50;;;17.00;43.30;;;;;;4972995;28;91853;-69
2022/03/07 12:01:11;;;;;;;2.05;1.60;;;16.90;43.20;;;;;;4971193;28;93652;-67
2022/03/07 12:03:38;;;;;;;1.80;1.40;;;16.90;43.30;;;;;;4971889;28;92932;-67
2022/03/07 12:06:07;;;;;;;2.33;1.50;;;16.90;44.30;;;;;;4970292;28;95296;-67
2022/03/07 12:08:47;;;;;;;2.50;1.60;;;16.90;43.40;;;;;;4971548;28;92839;-67
2022/03/07 12:11:31;;;;;;;1.77;1.30;;;17.00;43.40;;;;;;4972112;28;93659;-67
2022/03/07 12:14:05;;;;;;;2.10;1.42;;;17.00;43.50;;;;;;4971943;28;94152;-69
2022/03/07 12:16:39;;;;;;;2.50;1.40;;;17.00;43.50;;;;;;4972085;28;92948;-67
2022/03/07 12:19:21;;;;;;;1.77;1.45;;;17.00;43.50;;;;;;4972672;28;93067;-67
2022/03/07 12:21:48;;;;;;;2.92;1.60;;;16.90;43.50;;;;;;4971432;28;93055;-69
2022/03/07 12:24:17;;;;;;;2.55;1.35;;;16.90;43.50;;;;;;4972989;28;92824;-68
2022/03/07 12:26:54;;;;;;;1.73;1.40;;;16.90;43.50;;;;;;4972155;28;92842;-67
2022/03/07 12:29:30;;;;;;;2.25;1.45;;;17.00;43.60;;;;;;4972493;28;92538;-67
2022/03/07 12:32:03;;;;;;;1.80;1.30;;;17.00;43.70;;;;;;4970331;28;96707;-67
2022/03/07 12:34:31;;;;;;;1.95;1.30;;;16.90;43.60;;;;;;4970599;28;97221;-67
2022/03/07 12:37:08;;;;;;;1.75;1.30;;;16.90;43.70;;;;;;4972514;28;92603;-67
2022/03/07 12:39:46;;;;;;;2.03;1.30;;;16.90;43.70;;;;;;4971173;28;92887;-66
2022/03/07 12:42:13;;;;;;;1.60;1.25;;;16.90;43.80;;;;;;4970691;28;94214;-67
2022/03/07 12:44:40;;;;;;;2.03;1.30;;;16.90;43.80;;;;;;4969793;28;94174;-66
2022/03/07 12:47:06;;;;;;;1.85;1.38;;;16.90;43.80;;;;;;4970387;28;92548;-67
2022/03/07 12:49:32;;;;;;;1.88;1.30;;;16.90;43.80;;;;;;4971606;28;92284;-67
2022/03/07 12:52:04;;;;;;;1.83;1.25;;;16.90;43.80;;;;;;4971109;28;93239;-66
2022/03/07 12:54:37;;;;;;;1.75;1.48;;;16.90;44.00;;;;;;4970027;28;94380;-66
2022/03/07 12:57:04;;;;;;;1.63;1.33;;;16.90;44.00;;;;;;4969506;28;95160;-66
2022/03/07 12:59:32;;;;;;;1.80;1.48;;;16.80;43.90;;;;;;4970509;28;92767;-66
2022/03/07 13:01:58;;;;;;;2.15;1.30;;;16.80;43.90;;;;;;4970323;28;94169;-66
2022/03/07 13:04:29;;;;;;;1.50;1.30;;;16.80;43.90;;;;;;4970231;28;93999;-66
2022/03/07 13:06:56;;;;;;;2.20;1.30;;;16.80;44.00;;;;;;4970329;28;93064;-67
2022/03/07 13:09:34;;;;;;;2.03;1.30;;;16.80;44.10;;;;;;4970542;28;93088;-68
2022/03/07 13:12:01;;;;;;;2.58;1.30;;;16.80;44.10;;;;;;4970801;28;93421;-67
2022/03/07 13:14:32;;;;;;;1.73;1.23;;;16.80;44.10;;;;;;4971146;28;92763;-68
2022/03/07 13:17:07;;;;;;;1.48;1.20;;;16.80;44.20;;;;;;4971744;28;92681;-67
2022/03/07 13:19:44;;;;;;;1.95;1.42;;;16.80;44.10;;;;;;4973764;28;92917;-67
2022/03/07 13:22:12;;;;;;;2.33;1.20;;;16.80;44.20;;;;;;4974997;28;95320;-70
2022/03/07 13:24:38;;;;;;;1.70;0.90;;;16.80;44.20;;;;;;4973890;28;95182;-67
2022/03/07 13:27:08;;;;;;;1.20;1.00;;;16.80;44.20;;;;;;4974773;28;93088;-67
2022/03/07 13:29:37;;;;;;;1.67;1.20;;;16.80;44.20;;;;;;4971680;28;92757;-67
2022/03/07 13:32:13;;;;;;;1.50;1.17;;;16.80;44.20;;;;;;4969961;28;94091;-68
2022/03/07 13:34:51;;;;;;;1.85;1.00;;;16.80;44.20;;;;;;4970564;28;93307;-68
2022/03/07 13:37:21;;;;;;;1.70;1.20;;;16.80;44.20;;;;;;4970877;28;93034;-67
2022/03/07 13:39:59;;;;;;;1.83;1.02;;;16.80;44.20;;;;;;4970737;28;92379;-67
2022/03/07 13:42:25;;;;;;;1.20;0.90;;;16.90;45.20;;;;;;4969753;28;93528;-67
2022/03/07 13:44:56;;;;;;;2.38;1.10;;;16.90;44.20;;;;;;4970151;28;92808;-67
2022/03/07 13:47:26;;;;;;;1.58;1.15;;;16.90;44.10;;;;;;4968979;28;94980;-67
2022/03/07 13:50:14;;;;;;;1.55;1.00;;;16.90;44.00;;;;;;4951687;28;94509;-67
2022/03/07 13:52:42;;;;;;;1.65;1.20;;;17.00;44.00;;;;;;4970305;28;94289;-67
2022/03/07 13:55:11;;;;;;;3.22;1.13;;;17.00;44.00;;;;;;4969417;28;93769;-67
2022/03/07 13:57:38;;;;;;;1.83;1.20;;;17.00;43.90;;;;;;4969429;28;93067;-69
2022/03/07 14:00:10;;;;;;;2.33;1.13;;;17.00;43.90;;;;;;4969426;28;92597;-67
2022/03/07 14:02:38;;;;;;;1.52;1.10;;;17.10;43.90;;;;;;4970022;28;93187;-67
2022/03/07 14:05:03;;;;;;;1.30;0.98;;;17.00;43.80;;;;;;4969704;28;93391;-67
2022/03/07 14:07:31;;;;;;;1.30;1.05;;;17.10;43.90;;;;;;4970209;28;92465;-67
2022/03/07 14:09:59;;;;;;;2.20;0.90;;;17.10;43.90;;;;;;4970989;28;92633;-68
2022/03/07 14:12:32;;;;;;;1.83;0.88;;;17.10;43.80;;;;;;4968478;28;98490;-67
2022/03/07 14:14:59;;;;;;;;;;;17.10;43.90;;;;;;4971712;28;95466;-66
2022/03/07 14:17:24;;;;;;;1.50;0.90;;;17.10;44.10;;;;;;4971470;28;93040;-66
2022/03/07 14:19:50;;;;;;;1.90;1.08;;;17.10;45.10;;;;;;4970948;28;93006;-66
2022/03/07 14:22:19;;;;;;;1.50;1.05;;;17.10;44.10;;;;;;4970054;28;94198;-69
2022/03/07 14:24:48;;;;;;;0.98;0.88;;;17.10;44.10;;;;;;4970761;28;93571;-67
2022/03/07 14:27:15;;;;;;;0.82;0.70;;;17.10;44.10;;;;;;4970205;28;92637;-67
2022/03/07 14:29:43;;;;;;;1.40;0.90;;;17.20;44.10;;;;;;4971367;28;91834;-67
2022/03/07 14:32:10;;;;;;;0.98;0.77;;;17.20;44.00;;;;;;4969476;28;95163;-66